sensor_id;sensor_type;location;lat;lon;timestamp;P1;durP1;ratioP1;P2;durP2;ratioP2
70487;SDS011;57976;48.174;16.370;2022-11-20T19:37:42;13.80;;;5.60;;
70487;SDS011;57976;48.174;16.370;2022-11-20T19:39:51;12.50;;;5.70;;
70487;SDS011;57976;48.174;16.370;2022-11-20T19:41:58;12.70;;;5.60;;
70487;SDS011;57976;48.174;16.370;2022-11-20T19:44:06;10.90;;;5.20;;
70487;SDS011;57976;48.174;16.370;2022-11-20T19:46:14;13.00;;;5.70;;
70487;SDS011;57976;48.174;16.370;2022-11-20T19:48:23;10.90;;;5.10;;
70487;SDS011;57976;48.174;16.370;2022-11-20T19:50:36;13.90;;;6.10;;
70487;SDS011;57976;48.174;16.370;2022-11-20T19:52:44;12.50;;;5.40;;
70487;SDS011;57976;48.174;16.370;2022-11-20T19:55:00;11.60;;;5.10;;
70487;SDS011;57976;48.174;16.370;2022-11-20T19:57:08;12.00;;;5.30;;
70487;SDS011;57976;48.174;16.370;2022-11-20T19:59:14;11.70;;;5.40;;
70487;SDS011;57976;48.174;16.370;2022-11-20T20:01:24;11.60;;;5.50;;
70487;SDS011;57976;48.174;16.370;2022-11-20T20:03:34;12.70;;;5.60;;
70487;SDS011;57976;48.174;16.370;2022-11-20T20:05:41;12.00;;;5.40;;
70487;SDS011;57976;48.174;16.370;2022-11-20T20:07:48;10.50;;;5.00;;
70487;SDS011;57976;48.174;16.370;2022-11-20T20:09:55;12.70;;;6.20;;
70487;SDS011;57976;48.174;16.370;2022-11-20T20:12:01;11.70;;;5.60;;
70487;SDS011;57976;48.174;16.370;2022-11-20T20:14:09;13.80;;;6.20;;
70487;SDS011;57976;48.174;16.370;2022-11-20T20:16:18;12.40;;;5.90;;
70487;SDS011;57976;48.174;16.370;2022-11-20T20:18:27;10.70;;;4.80;;
70487;SDS011;57976;48.174;16.370;2022-11-20T20:20:37;10.90;;;5.00;;
70487;SDS011;57976;48.174;16.370;2022-11-20T20:22:44;9.30;;;4.20;;
70487;SDS011;57976;48.174;16.370;2022-11-20T20:24:53;10.00;;;4.40;;
70487;SDS011;57976;48.174;16.370;2022-11-20T20:27:00;17.50;;;7.70;;
70487;SDS011;57976;48.174;16.370;2022-11-20T20:29:06;27.60;;;13.20;;
70487;SDS011;57976;48.174;16.370;2022-11-20T20:31:14;31.00;;;15.50;;
70487;SDS011;57976;48.174;16.370;2022-11-20T20:33:22;30.40;;;15.00;;
70487;SDS011;57976;48.174;16.370;2022-11-20T20:35:29;31.60;;;15.80;;
70487;SDS011;57976;48.174;16.370;2022-11-20T20:37:36;31.60;;;16.00;;
70487;SDS011;57976;48.174;16.370;2022-11-20T20:39:43;30.90;;;15.90;;
70487;SDS011;57976;48.174;16.370;2022-11-20T20:41:52;31.20;;;15.20;;
70487;SDS011;57976;48.174;16.370;2022-11-20T20:44:03;31.70;;;15.70;;
70487;SDS011;57976;48.174;16.370;2022-11-20T20:46:10;29.70;;;15.00;;
70487;SDS011;57976;48.174;16.370;2022-11-20T20:48:17;30.30;;;14.70;;
70487;SDS011;57976;48.174;16.370;2022-11-20T20:50:32;27.40;;;14.30;;
70487;SDS011;57976;48.174;16.370;2022-11-20T20:52:39;31.00;;;15.10;;
70487;SDS011;57976;48.174;16.370;2022-11-20T20:54:45;28.60;;;14.20;;
70487;SDS011;57976;48.174;16.370;2022-11-20T20:56:53;30.80;;;14.90;;
70487;SDS011;57976;48.174;16.370;2022-11-20T20:58:59;30.40;;;14.20;;
70487;SDS011;57976;48.174;16.370;2022-11-20T21:01:10;50.20;;;20.00;;
70487;SDS011;57976;48.174;16.370;2022-11-20T21:03:20;29.90;;;14.30;;
70487;SDS011;57976;48.174;16.370;2022-11-20T21:05:28;33.00;;;16.50;;
70487;SDS011;57976;48.174;16.370;2022-11-20T21:07:34;31.30;;;14.90;;
70487;SDS011;57976;48.174;16.370;2022-11-20T21:11:59;30.80;;;14.30;;
70487;SDS011;57976;48.174;16.370;2022-11-20T21:14:04;28.50;;;14.10;;
70487;SDS011;57976;48.174;16.370;2022-11-20T21:16:09;28.20;;;13.30;;
70487;SDS011;57976;48.174;16.370;2022-11-20T21:18:16;26.60;;;13.00;;
70487;SDS011;57976;48.174;16.370;2022-11-20T21:20:22;26.20;;;12.70;;
70487;SDS011;57976;48.174;16.370;2022-11-20T21:22:28;26.50;;;12.60;;
70487;SDS011;57976;48.174;16.370;2022-11-20T21:24:38;27.20;;;12.70;;
70487;SDS011;57976;48.174;16.370;2022-11-20T21:26:43;26.70;;;12.40;;
70487;SDS011;57976;48.174;16.370;2022-11-20T21:28:49;25.30;;;13.00;;
70487;SDS011;57976;48.174;16.370;2022-11-20T21:31:02;23.70;;;12.20;;
70487;SDS011;57976;48.174;16.370;2022-11-20T21:33:11;25.30;;;12.20;;
70487;SDS011;57976;48.174;16.370;2022-11-20T21:35:17;24.00;;;12.30;;
70487;SDS011;57976;48.174;16.370;2022-11-20T21:37:23;25.80;;;12.20;;
70487;SDS011;57976;48.174;16.370;2022-11-20T21:39:30;23.80;;;11.80;;
70487;SDS011;57976;48.174;16.370;2022-11-20T21:41:35;24.50;;;11.30;;
70487;SDS011;57976;48.174;16.370;2022-11-20T21:43:40;22.30;;;10.60;;
70487;SDS011;57976;48.174;16.370;2022-11-20T21:45:45;21.80;;;10.70;;
70487;SDS011;57976;48.174;16.370;2022-11-20T21:47:53;22.20;;;10.60;;
70487;SDS011;57976;48.174;16.370;2022-11-20T21:49:58;25.50;;;11.50;;
70487;SDS011;57976;48.174;16.370;2022-11-20T21:52:03;23.60;;;12.00;;
70487;SDS011;57976;48.174;16.370;2022-11-20T21:54:09;27.30;;;12.70;;
70487;SDS011;57976;48.174;16.370;2022-11-20T21:56:14;23.30;;;11.50;;
70487;SDS011;57976;48.174;16.370;2022-11-20T21:58:22;28.40;;;13.20;;
70487;SDS011;57976;48.174;16.370;2022-11-20T22:00:27;25.60;;;12.30;;
70487;SDS011;57976;48.174;16.370;2022-11-20T22:02:32;24.20;;;11.80;;
70487;SDS011;57976;48.174;16.370;2022-11-20T22:04:37;21.90;;;11.00;;
70487;SDS011;57976;48.174;16.370;2022-11-20T22:06:41;22.20;;;10.80;;
70487;SDS011;57976;48.174;16.370;2022-11-20T22:08:46;25.10;;;11.00;;
70487;SDS011;57976;48.174;16.370;2022-11-20T22:10:55;21.60;;;9.80;;
70487;SDS011;57976;48.174;16.370;2022-11-20T22:13:01;23.00;;;10.40;;
70487;SDS011;57976;48.174;16.370;2022-11-20T22:15:10;20.20;;;9.60;;
70487;SDS011;57976;48.174;16.370;2022-11-20T22:17:14;22.70;;;10.30;;
70487;SDS011;57976;48.174;16.370;2022-11-20T22:19:19;22.30;;;10.00;;
70487;SDS011;57976;48.174;16.370;2022-11-20T22:21:25;21.80;;;9.80;;
70487;SDS011;57976;48.174;16.370;2022-11-20T22:23:31;18.90;;;8.60;;
70487;SDS011;57976;48.174;16.370;2022-11-20T22:25:36;18.10;;;8.90;;
70487;SDS011;57976;48.174;16.370;2022-11-20T22:27:41;17.60;;;8.50;;
70487;SDS011;57976;48.174;16.370;2022-11-20T22:29:47;18.10;;;8.00;;
70487;SDS011;57976;48.174;16.370;2022-11-20T22:31:52;17.80;;;8.10;;
70487;SDS011;57976;48.174;16.370;2022-11-20T22:33:57;16.70;;;7.70;;
70487;SDS011;57976;48.174;16.370;2022-11-20T22:36:04;15.40;;;7.20;;
70487;SDS011;57976;48.174;16.370;2022-11-20T22:38:10;16.90;;;7.20;;
70487;SDS011;57976;48.174;16.370;2022-11-20T22:40:15;16.20;;;7.20;;
70487;SDS011;57976;48.174;16.370;2022-11-20T22:42:20;17.40;;;8.20;;
70487;SDS011;57976;48.174;16.370;2022-11-20T22:44:25;17.90;;;9.00;;
70487;SDS011;57976;48.174;16.370;2022-11-20T22:46:30;20.10;;;9.30;;
70487;SDS011;57976;48.174;16.370;2022-11-20T22:48:36;19.80;;;9.50;;
70487;SDS011;57976;48.174;16.370;2022-11-20T22:50:42;21.20;;;9.60;;
70487;SDS011;57976;48.174;16.370;2022-11-20T22:52:47;20.10;;;9.20;;
70487;SDS011;57976;48.174;16.370;2022-11-20T22:54:51;20.60;;;9.60;;
70487;SDS011;57976;48.174;16.370;2022-11-20T22:56:56;20.30;;;9.30;;
70487;SDS011;57976;48.174;16.370;2022-11-20T22:59:01;18.30;;;9.00;;
70487;SDS011;57976;48.174;16.370;2022-11-20T23:01:07;18.00;;;8.40;;
70487;SDS011;57976;48.174;16.370;2022-11-20T23:03:13;17.50;;;8.50;;
70487;SDS011;57976;48.174;16.370;2022-11-20T23:05:17;19.90;;;8.50;;
70487;SDS011;57976;48.174;16.370;2022-11-20T23:07:22;16.60;;;8.20;;
70487;SDS011;57976;48.174;16.370;2022-11-20T23:09:27;16.50;;;7.80;;
70487;SDS011;57976;48.174;16.370;2022-11-20T23:11:32;16.10;;;7.60;;
70487;SDS011;57976;48.174;16.370;2022-11-20T23:13:37;14.80;;;7.60;;
70487;SDS011;57976;48.174;16.370;2022-11-20T23:15:43;15.30;;;7.80;;
70487;SDS011;57976;48.174;16.370;2022-11-20T23:17:47;16.10;;;7.30;;
70487;SDS011;57976;48.174;16.370;2022-11-20T23:19:52;16.70;;;7.70;;
70487;SDS011;57976;48.174;16.370;2022-11-20T23:21:57;16.30;;;7.20;;
70487;SDS011;57976;48.174;16.370;2022-11-20T23:24:01;15.10;;;7.50;;
70487;SDS011;57976;48.174;16.370;2022-11-20T23:26:08;15.00;;;7.00;;
70487;SDS011;57976;48.174;16.370;2022-11-20T23:28:13;14.10;;;6.50;;
70487;SDS011;57976;48.174;16.370;2022-11-20T23:30:18;13.80;;;5.90;;
70487;SDS011;57976;48.174;16.370;2022-11-20T23:32:23;13.00;;;6.10;;
70487;SDS011;57976;48.174;16.370;2022-11-20T23:34:27;13.70;;;5.90;;
70487;SDS011;57976;48.174;16.370;2022-11-20T23:36:32;13.50;;;5.90;;
70487;SDS011;57976;48.174;16.370;2022-11-20T23:38:37;11.40;;;5.30;;
70487;SDS011;57976;48.174;16.370;2022-11-20T23:40:45;13.20;;;5.60;;
70487;SDS011;57976;48.174;16.370;2022-11-20T23:42:50;16.20;;;6.50;;
70487;SDS011;57976;48.174;16.370;2022-11-20T23:44:55;12.40;;;5.60;;
70487;SDS011;57976;48.174;16.370;2022-11-20T23:46:59;13.20;;;5.80;;
70487;SDS011;57976;48.174;16.370;2022-11-20T23:49:04;11.90;;;5.80;;
70487;SDS011;57976;48.174;16.370;2022-11-20T23:51:09;12.20;;;5.70;;
70487;SDS011;57976;48.174;16.370;2022-11-20T23:53:14;12.50;;;5.50;;
70487;SDS011;57976;48.174;16.370;2022-11-20T23:55:19;11.80;;;5.20;;
70487;SDS011;57976;48.174;16.370;2022-11-20T23:57:24;12.70;;;5.90;;
70487;SDS011;57976;48.174;16.370;2022-11-20T23:59:28;13.50;;;6.10;;
